sensor_id;sensor_type;location;lat;lon;timestamp;P1;durP1;ratioP1;P2;durP2;ratioP2
22470;SDS011;11402;51.374;6.594;2022-07-05T00:00:50;4.53;;;2.60;;
22470;SDS011;11402;51.374;6.594;2022-07-05T00:03:15;5.22;;;2.40;;
22470;SDS011;11402;51.374;6.594;2022-07-05T00:05:41;4.50;;;2.50;;
22470;SDS011;11402;51.374;6.594;2022-07-05T00:08:07;4.15;;;2.33;;
22470;SDS011;11402;51.374;6.594;2022-07-05T00:10:33;4.90;;;2.50;;
22470;SDS011;11402;51.374;6.594;2022-07-05T00:13:00;4.20;;;2.70;;
22470;SDS011;11402;51.374;6.594;2022-07-05T00:15:26;3.70;;;2.20;;
22470;SDS011;11402;51.374;6.594;2022-07-05T00:17:52;3.83;;;2.40;;
22470;SDS011;11402;51.374;6.594;2022-07-05T00:20:18;6.22;;;2.55;;
22470;SDS011;11402;51.374;6.594;2022-07-05T00:22:43;5.55;;;2.70;;
22470;SDS011;11402;51.374;6.594;2022-07-05T00:25:09;2.72;;;2.15;;
22470;SDS011;11402;51.374;6.594;2022-07-05T00:27:35;4.43;;;2.60;;
22470;SDS011;11402;51.374;6.594;2022-07-05T00:30:01;4.75;;;2.60;;
22470;SDS011;11402;51.374;6.594;2022-07-05T00:32:26;5.30;;;2.55;;
22470;SDS011;11402;51.374;6.594;2022-07-05T00:34:52;6.32;;;2.80;;
22470;SDS011;11402;51.374;6.594;2022-07-05T00:37:18;4.63;;;2.95;;
22470;SDS011;11402;51.374;6.594;2022-07-05T00:39:43;5.75;;;2.75;;
22470;SDS011;11402;51.374;6.594;2022-07-05T00:42:09;5.57;;;2.70;;
22470;SDS011;11402;51.374;6.594;2022-07-05T00:44:36;5.88;;;3.00;;
22470;SDS011;11402;51.374;6.594;2022-07-05T00:47:03;5.32;;;2.78;;
22470;SDS011;11402;51.374;6.594;2022-07-05T00:49:30;4.53;;;2.80;;
22470;SDS011;11402;51.374;6.594;2022-07-05T00:51:58;2.90;;;2.60;;
22470;SDS011;11402;51.374;6.594;2022-07-05T00:54:25;3.80;;;2.47;;
22470;SDS011;11402;51.374;6.594;2022-07-05T00:56:51;5.25;;;2.80;;
22470;SDS011;11402;51.374;6.594;2022-07-05T00:59:18;5.75;;;2.80;;
22470;SDS011;11402;51.374;6.594;2022-07-05T01:01:43;4.30;;;2.97;;
22470;SDS011;11402;51.374;6.594;2022-07-05T01:04:10;3.63;;;2.50;;
22470;SDS011;11402;51.374;6.594;2022-07-05T01:06:36;4.55;;;2.53;;
22470;SDS011;11402;51.374;6.594;2022-07-05T01:09:03;4.50;;;2.78;;
22470;SDS011;11402;51.374;6.594;2022-07-05T01:11:29;3.53;;;2.60;;
22470;SDS011;11402;51.374;6.594;2022-07-05T01:13:56;4.22;;;3.00;;
22470;SDS011;11402;51.374;6.594;2022-07-05T01:16:23;4.90;;;3.10;;
22470;SDS011;11402;51.374;6.594;2022-07-05T01:18:49;5.22;;;3.22;;
22470;SDS011;11402;51.374;6.594;2022-07-05T01:21:15;4.18;;;2.88;;
22470;SDS011;11402;51.374;6.594;2022-07-05T01:23:45;3.65;;;3.20;;
22470;SDS011;11402;51.374;6.594;2022-07-05T01:26:11;3.58;;;2.55;;
22470;SDS011;11402;51.374;6.594;2022-07-05T01:28:36;4.22;;;2.88;;
22470;SDS011;11402;51.374;6.594;2022-07-05T01:31:02;4.28;;;3.05;;
22470;SDS011;11402;51.374;6.594;2022-07-05T01:33:28;7.00;;;3.38;;
22470;SDS011;11402;51.374;6.594;2022-07-05T01:35:55;4.63;;;2.97;;
22470;SDS011;11402;51.374;6.594;2022-07-05T01:38:22;3.85;;;2.80;;
22470;SDS011;11402;51.374;6.594;2022-07-05T01:40:49;5.00;;;2.90;;
22470;SDS011;11402;51.374;6.594;2022-07-05T01:43:17;5.97;;;3.20;;
22470;SDS011;11402;51.374;6.594;2022-07-05T01:45:44;6.03;;;2.97;;
22470;SDS011;11402;51.374;6.594;2022-07-05T01:48:12;8.43;;;3.63;;
22470;SDS011;11402;51.374;6.594;2022-07-05T01:50:49;3.70;;;3.10;;
22470;SDS011;11402;51.374;6.594;2022-07-05T01:53:35;4.57;;;3.10;;
22470;SDS011;11402;51.374;6.594;2022-07-05T01:56:03;3.83;;;3.00;;
22470;SDS011;11402;51.374;6.594;2022-07-05T01:58:29;4.82;;;3.15;;
22470;SDS011;11402;51.374;6.594;2022-07-05T02:00:59;4.35;;;3.00;;
22470;SDS011;11402;51.374;6.594;2022-07-05T02:03:25;4.97;;;3.20;;
22470;SDS011;11402;51.374;6.594;2022-07-05T02:05:51;7.28;;;3.30;;
22470;SDS011;11402;51.374;6.594;2022-07-05T02:08:17;5.05;;;3.45;;
22470;SDS011;11402;51.374;6.594;2022-07-05T02:10:45;3.63;;;3.20;;
22470;SDS011;11402;51.374;6.594;2022-07-05T02:13:11;5.78;;;3.13;;
22470;SDS011;11402;51.374;6.594;2022-07-05T02:15:38;5.38;;;3.10;;
22470;SDS011;11402;51.374;6.594;2022-07-05T02:18:06;6.78;;;3.22;;
22470;SDS011;11402;51.374;6.594;2022-07-05T02:20:33;6.03;;;3.33;;
22470;SDS011;11402;51.374;6.594;2022-07-05T02:23:00;4.85;;;3.28;;
22470;SDS011;11402;51.374;6.594;2022-07-05T02:25:26;5.28;;;3.35;;
22470;SDS011;11402;51.374;6.594;2022-07-05T02:27:52;3.67;;;3.00;;
22470;SDS011;11402;51.374;6.594;2022-07-05T02:30:19;5.80;;;3.50;;
22470;SDS011;11402;51.374;6.594;2022-07-05T02:32:45;4.30;;;3.28;;
22470;SDS011;11402;51.374;6.594;2022-07-05T02:35:12;5.68;;;3.47;;
22470;SDS011;11402;51.374;6.594;2022-07-05T02:37:38;5.07;;;3.30;;
22470;SDS011;11402;51.374;6.594;2022-07-05T02:40:05;3.90;;;3.20;;
22470;SDS011;11402;51.374;6.594;2022-07-05T02:42:32;6.68;;;3.28;;
22470;SDS011;11402;51.374;6.594;2022-07-05T02:44:57;3.78;;;3.15;;
22470;SDS011;11402;51.374;6.594;2022-07-05T02:47:23;4.30;;;3.45;;
22470;SDS011;11402;51.374;6.594;2022-07-05T02:49:48;6.32;;;3.47;;
22470;SDS011;11402;51.374;6.594;2022-07-05T02:52:14;4.55;;;3.20;;
22470;SDS011;11402;51.374;6.594;2022-07-05T02:54:40;3.80;;;3.30;;
22470;SDS011;11402;51.374;6.594;2022-07-05T02:57:05;4.00;;;3.20;;
22470;SDS011;11402;51.374;6.594;2022-07-05T02:59:31;6.60;;;3.58;;
22470;SDS011;11402;51.374;6.594;2022-07-05T03:01:56;5.10;;;3.20;;
22470;SDS011;11402;51.374;6.594;2022-07-05T03:04:22;4.55;;;3.20;;
22470;SDS011;11402;51.374;6.594;2022-07-05T03:06:48;3.80;;;3.20;;
22470;SDS011;11402;51.374;6.594;2022-07-05T03:09:13;5.90;;;3.20;;
22470;SDS011;11402;51.374;6.594;2022-07-05T03:11:39;8.85;;;3.50;;
22470;SDS011;11402;51.374;6.594;2022-07-05T03:14:04;5.45;;;3.38;;
22470;SDS011;11402;51.374;6.594;2022-07-05T03:16:30;6.55;;;3.60;;
22470;SDS011;11402;51.374;6.594;2022-07-05T03:18:55;6.85;;;3.80;;
22470;SDS011;11402;51.374;6.594;2022-07-05T03:21:21;7.30;;;3.17;;
22470;SDS011;11402;51.374;6.594;2022-07-05T03:23:47;3.35;;;3.03;;
22470;SDS011;11402;51.374;6.594;2022-07-05T03:26:13;7.03;;;3.30;;
22470;SDS011;11402;51.374;6.594;2022-07-05T03:28:38;5.38;;;3.88;;
22470;SDS011;11402;51.374;6.594;2022-07-05T03:31:04;5.43;;;3.58;;
22470;SDS011;11402;51.374;6.594;2022-07-05T03:33:30;4.25;;;3.47;;
22470;SDS011;11402;51.374;6.594;2022-07-05T03:35:56;5.22;;;3.55;;
22470;SDS011;11402;51.374;6.594;2022-07-05T03:38:22;5.18;;;3.78;;
22470;SDS011;11402;51.374;6.594;2022-07-05T03:40:47;4.35;;;3.70;;
22470;SDS011;11402;51.374;6.594;2022-07-05T03:43:13;4.82;;;3.42;;
22470;SDS011;11402;51.374;6.594;2022-07-05T03:45:38;5.53;;;3.88;;
22470;SDS011;11402;51.374;6.594;2022-07-05T03:48:04;5.30;;;3.88;;
22470;SDS011;11402;51.374;6.594;2022-07-05T03:50:30;5.05;;;3.78;;
22470;SDS011;11402;51.374;6.594;2022-07-05T03:52:55;6.93;;;4.30;;
22470;SDS011;11402;51.374;6.594;2022-07-05T03:55:21;6.78;;;3.58;;
22470;SDS011;11402;51.374;6.594;2022-07-05T03:57:46;4.53;;;4.05;;
22470;SDS011;11402;51.374;6.594;2022-07-05T04:00:13;8.10;;;4.03;;
22470;SDS011;11402;51.374;6.594;2022-07-05T04:02:39;7.10;;;4.57;;
22470;SDS011;11402;51.374;6.594;2022-07-05T04:05:05;5.65;;;4.20;;
22470;SDS011;11402;51.374;6.594;2022-07-05T04:07:31;10.52;;;4.45;;
22470;SDS011;11402;51.374;6.594;2022-07-05T04:09:57;5.57;;;4.20;;
22470;SDS011;11402;51.374;6.594;2022-07-05T04:12:23;8.13;;;4.60;;
22470;SDS011;11402;51.374;6.594;2022-07-05T04:14:49;8.13;;;4.53;;
22470;SDS011;11402;51.374;6.594;2022-07-05T04:17:14;8.40;;;4.93;;
22470;SDS011;11402;51.374;6.594;2022-07-05T04:19:40;10.45;;;4.93;;
22470;SDS011;11402;51.374;6.594;2022-07-05T04:22:05;5.85;;;4.80;;
22470;SDS011;11402;51.374;6.594;2022-07-05T04:24:31;8.40;;;4.90;;
22470;SDS011;11402;51.374;6.594;2022-07-05T04:27:16;9.57;;;5.10;;
22470;SDS011;11402;51.374;6.594;2022-07-05T04:29:42;7.38;;;4.93;;
22470;SDS011;11402;51.374;6.594;2022-07-05T04:32:08;6.25;;;4.63;;
22470;SDS011;11402;51.374;6.594;2022-07-05T04:34:33;10.52;;;4.97;;
22470;SDS011;11402;51.374;6.594;2022-07-05T04:36:59;7.45;;;5.30;;
22470;SDS011;11402;51.374;6.594;2022-07-05T04:39:24;6.40;;;4.60;;
22470;SDS011;11402;51.374;6.594;2022-07-05T04:41:50;8.90;;;5.13;;
22470;SDS011;11402;51.374;6.594;2022-07-05T04:44:15;9.45;;;5.10;;
22470;SDS011;11402;51.374;6.594;2022-07-05T04:46:41;10.80;;;5.40;;
22470;SDS011;11402;51.374;6.594;2022-07-05T04:49:06;7.25;;;5.40;;
22470;SDS011;11402;51.374;6.594;2022-07-05T04:51:32;7.03;;;4.68;;
22470;SDS011;11402;51.374;6.594;2022-07-05T04:53:57;9.15;;;5.28;;
22470;SDS011;11402;51.374;6.594;2022-07-05T04:56:23;10.27;;;5.07;;
22470;SDS011;11402;51.374;6.594;2022-07-05T04:58:48;7.03;;;5.10;;
22470;SDS011;11402;51.374;6.594;2022-07-05T05:01:14;6.95;;;5.05;;
22470;SDS011;11402;51.374;6.594;2022-07-05T05:03:39;7.38;;;5.00;;
22470;SDS011;11402;51.374;6.594;2022-07-05T05:06:05;5.80;;;4.78;;
22470;SDS011;11402;51.374;6.594;2022-07-05T05:08:31;10.85;;;5.18;;
22470;SDS011;11402;51.374;6.594;2022-07-05T05:10:57;5.55;;;4.85;;
22470;SDS011;11402;51.374;6.594;2022-07-05T05:13:22;9.13;;;5.25;;
22470;SDS011;11402;51.374;6.594;2022-07-05T05:15:48;7.30;;;4.68;;
22470;SDS011;11402;51.374;6.594;2022-07-05T05:18:13;7.45;;;5.43;;
22470;SDS011;11402;51.374;6.594;2022-07-05T05:20:40;8.85;;;5.32;;
22470;SDS011;11402;51.374;6.594;2022-07-05T05:23:05;8.07;;;5.10;;
22470;SDS011;11402;51.374;6.594;2022-07-05T05:25:31;12.02;;;5.35;;
22470;SDS011;11402;51.374;6.594;2022-07-05T05:27:56;8.77;;;4.80;;
22470;SDS011;11402;51.374;6.594;2022-07-05T05:30:22;6.25;;;5.00;;
22470;SDS011;11402;51.374;6.594;2022-07-05T05:32:48;8.88;;;5.28;;
22470;SDS011;11402;51.374;6.594;2022-07-05T05:35:13;7.18;;;4.85;;
22470;SDS011;11402;51.374;6.594;2022-07-05T05:37:46;8.55;;;5.00;;
22470;SDS011;11402;51.374;6.594;2022-07-05T05:40:13;11.15;;;5.70;;
22470;SDS011;11402;51.374;6.594;2022-07-05T05:42:38;7.68;;;5.55;;
22470;SDS011;11402;51.374;6.594;2022-07-05T05:45:04;9.40;;;5.45;;
22470;SDS011;11402;51.374;6.594;2022-07-05T05:47:30;8.45;;;5.10;;
22470;SDS011;11402;51.374;6.594;2022-07-05T05:49:55;7.20;;;5.53;;
22470;SDS011;11402;51.374;6.594;2022-07-05T05:52:21;5.60;;;5.00;;
22470;SDS011;11402;51.374;6.594;2022-07-05T05:54:46;8.73;;;5.13;;
22470;SDS011;11402;51.374;6.594;2022-07-05T05:57:12;7.65;;;5.15;;
22470;SDS011;11402;51.374;6.594;2022-07-05T05:59:38;11.43;;;5.32;;
22470;SDS011;11402;51.374;6.594;2022-07-05T06:02:03;6.60;;;5.18;;
22470;SDS011;11402;51.374;6.594;2022-07-05T06:04:29;9.95;;;4.70;;
22470;SDS011;11402;51.374;6.594;2022-07-05T06:06:54;6.38;;;4.25;;
22470;SDS011;11402;51.374;6.594;2022-07-05T06:09:20;7.78;;;4.35;;
22470;SDS011;11402;51.374;6.594;2022-07-05T06:11:45;6.55;;;3.92;;
22470;SDS011;11402;51.374;6.594;2022-07-05T06:14:11;5.38;;;3.47;;
22470;SDS011;11402;51.374;6.594;2022-07-05T06:16:36;5.75;;;3.67;;
22470;SDS011;11402;51.374;6.594;2022-07-05T06:19:02;6.35;;;3.85;;
22470;SDS011;11402;51.374;6.594;2022-07-05T06:21:28;5.85;;;3.60;;
22470;SDS011;11402;51.374;6.594;2022-07-05T06:23:53;4.18;;;3.20;;
22470;SDS011;11402;51.374;6.594;2022-07-05T06:26:19;4.88;;;2.80;;
22470;SDS011;11402;51.374;6.594;2022-07-05T06:28:44;6.93;;;2.95;;
22470;SDS011;11402;51.374;6.594;2022-07-05T06:31:10;10.02;;;5.00;;
22470;SDS011;11402;51.374;6.594;2022-07-05T06:33:36;6.22;;;3.85;;
22470;SDS011;11402;51.374;6.594;2022-07-05T06:36:01;5.20;;;3.10;;
22470;SDS011;11402;51.374;6.594;2022-07-05T06:38:27;4.20;;;2.83;;
22470;SDS011;11402;51.374;6.594;2022-07-05T06:40:52;4.95;;;2.88;;
22470;SDS011;11402;51.374;6.594;2022-07-05T06:43:19;6.55;;;2.88;;
22470;SDS011;11402;51.374;6.594;2022-07-05T06:45:44;6.65;;;2.55;;
22470;SDS011;11402;51.374;6.594;2022-07-05T06:48:13;4.03;;;2.55;;
22470;SDS011;11402;51.374;6.594;2022-07-05T06:50:39;5.68;;;2.35;;
22470;SDS011;11402;51.374;6.594;2022-07-05T06:53:06;7.03;;;2.60;;
22470;SDS011;11402;51.374;6.594;2022-07-05T06:55:33;6.47;;;2.80;;
22470;SDS011;11402;51.374;6.594;2022-07-05T06:58:06;4.65;;;2.45;;
22470;SDS011;11402;51.374;6.594;2022-07-05T07:02:58;5.72;;;1.70;;
22470;SDS011;11402;51.374;6.594;2022-07-05T07:05:24;5.15;;;1.75;;
22470;SDS011;11402;51.374;6.594;2022-07-05T07:07:50;4.45;;;2.40;;
22470;SDS011;11402;51.374;6.594;2022-07-05T07:10:35;3.90;;;1.75;;
22470;SDS011;11402;51.374;6.594;2022-07-05T07:13:01;4.80;;;2.10;;
22470;SDS011;11402;51.374;6.594;2022-07-05T07:15:28;3.60;;;1.90;;
22470;SDS011;11402;51.374;6.594;2022-07-05T07:17:54;4.32;;;1.63;;
22470;SDS011;11402;51.374;6.594;2022-07-05T07:20:20;2.95;;;1.42;;
22470;SDS011;11402;51.374;6.594;2022-07-05T07:22:46;4.95;;;1.60;;
22470;SDS011;11402;51.374;6.594;2022-07-05T07:25:11;3.10;;;1.65;;
22470;SDS011;11402;51.374;6.594;2022-07-05T07:27:43;4.95;;;2.30;;
22470;SDS011;11402;51.374;6.594;2022-07-05T07:30:12;4.07;;;2.10;;
22470;SDS011;11402;51.374;6.594;2022-07-05T07:32:39;4.25;;;2.10;;
22470;SDS011;11402;51.374;6.594;2022-07-05T07:35:05;4.28;;;1.70;;
22470;SDS011;11402;51.374;6.594;2022-07-05T07:37:32;5.13;;;1.45;;
22470;SDS011;11402;51.374;6.594;2022-07-05T07:39:57;2.85;;;1.40;;
22470;SDS011;11402;51.374;6.594;2022-07-05T07:42:23;3.80;;;1.40;;
22470;SDS011;11402;51.374;6.594;2022-07-05T07:44:49;5.07;;;1.52;;
22470;SDS011;11402;51.374;6.594;2022-07-05T07:47:15;2.35;;;1.20;;
22470;SDS011;11402;51.374;6.594;2022-07-05T07:49:40;4.38;;;1.50;;
22470;SDS011;11402;51.374;6.594;2022-07-05T07:52:06;2.92;;;1.30;;
22470;SDS011;11402;51.374;6.594;2022-07-05T07:54:32;6.60;;;1.48;;
22470;SDS011;11402;51.374;6.594;2022-07-05T07:56:58;4.25;;;1.50;;
22470;SDS011;11402;51.374;6.594;2022-07-05T07:59:24;3.53;;;1.50;;
22470;SDS011;11402;51.374;6.594;2022-07-05T08:01:50;3.08;;;1.60;;
22470;SDS011;11402;51.374;6.594;2022-07-05T08:04:16;8.45;;;1.88;;
22470;SDS011;11402;51.374;6.594;2022-07-05T08:06:42;3.40;;;1.70;;
22470;SDS011;11402;51.374;6.594;2022-07-05T08:09:08;2.42;;;1.38;;
22470;SDS011;11402;51.374;6.594;2022-07-05T08:11:34;2.63;;;1.60;;
22470;SDS011;11402;51.374;6.594;2022-07-05T08:14:02;5.43;;;1.90;;
22470;SDS011;11402;51.374;6.594;2022-07-05T08:16:27;16.63;;;7.75;;
22470;SDS011;11402;51.374;6.594;2022-07-05T08:18:53;4.93;;;1.70;;
22470;SDS011;11402;51.374;6.594;2022-07-05T08:21:37;2.40;;;1.40;;
22470;SDS011;11402;51.374;6.594;2022-07-05T08:24:07;5.60;;;1.30;;
22470;SDS011;11402;51.374;6.594;2022-07-05T08:26:35;4.03;;;2.10;;
22470;SDS011;11402;51.374;6.594;2022-07-05T08:29:02;2.10;;;1.88;;
22470;SDS011;11402;51.374;6.594;2022-07-05T08:31:31;3.42;;;2.20;;
22470;SDS011;11402;51.374;6.594;2022-07-05T08:33:58;4.65;;;2.35;;
22470;SDS011;11402;51.374;6.594;2022-07-05T08:36:24;5.43;;;2.38;;
22470;SDS011;11402;51.374;6.594;2022-07-05T08:38:50;5.85;;;2.30;;
22470;SDS011;11402;51.374;6.594;2022-07-05T08:41:17;3.70;;;2.15;;
22470;SDS011;11402;51.374;6.594;2022-07-05T08:43:44;2.80;;;1.77;;
22470;SDS011;11402;51.374;6.594;2022-07-05T08:46:11;7.40;;;2.10;;
22470;SDS011;11402;51.374;6.594;2022-07-05T08:48:39;3.95;;;1.73;;
22470;SDS011;11402;51.374;6.594;2022-07-05T08:51:09;3.78;;;1.90;;
22470;SDS011;11402;51.374;6.594;2022-07-05T08:53:37;5.25;;;2.13;;
22470;SDS011;11402;51.374;6.594;2022-07-05T08:56:02;6.30;;;2.20;;
22470;SDS011;11402;51.374;6.594;2022-07-05T08:58:30;7.18;;;2.00;;
22470;SDS011;11402;51.374;6.594;2022-07-05T09:00:55;5.40;;;2.28;;
22470;SDS011;11402;51.374;6.594;2022-07-05T09:03:22;3.63;;;1.65;;
22470;SDS011;11402;51.374;6.594;2022-07-05T09:05:51;4.40;;;2.10;;
22470;SDS011;11402;51.374;6.594;2022-07-05T09:08:21;8.48;;;2.17;;
22470;SDS011;11402;51.374;6.594;2022-07-05T09:10:47;2.40;;;1.70;;
22470;SDS011;11402;51.374;6.594;2022-07-05T09:13:15;4.75;;;1.95;;
22470;SDS011;11402;51.374;6.594;2022-07-05T09:15:40;4.03;;;1.63;;
22470;SDS011;11402;51.374;6.594;2022-07-05T09:18:06;4.43;;;2.30;;
22470;SDS011;11402;51.374;6.594;2022-07-05T09:20:32;6.50;;;2.10;;
22470;SDS011;11402;51.374;6.594;2022-07-05T09:22:57;4.97;;;2.10;;
22470;SDS011;11402;51.374;6.594;2022-07-05T09:25:32;6.45;;;2.30;;
22470;SDS011;11402;51.374;6.594;2022-07-05T09:28:01;4.70;;;1.63;;
22470;SDS011;11402;51.374;6.594;2022-07-05T09:33:02;2.08;;;1.48;;
22470;SDS011;11402;51.374;6.594;2022-07-05T09:35:30;3.88;;;2.10;;
22470;SDS011;11402;51.374;6.594;2022-07-05T09:37:58;4.15;;;2.65;;
22470;SDS011;11402;51.374;6.594;2022-07-05T09:40:24;5.40;;;2.78;;
22470;SDS011;11402;51.374;6.594;2022-07-05T09:42:49;10.10;;;2.00;;
22470;SDS011;11402;51.374;6.594;2022-07-05T09:45:21;7.60;;;1.90;;
22470;SDS011;11402;51.374;6.594;2022-07-05T09:50:14;5.32;;;1.70;;
22470;SDS011;11402;51.374;6.594;2022-07-05T09:52:40;3.88;;;1.70;;
22470;SDS011;11402;51.374;6.594;2022-07-05T09:55:14;5.35;;;2.05;;
22470;SDS011;11402;51.374;6.594;2022-07-05T09:57:44;3.67;;;2.22;;
22470;SDS011;11402;51.374;6.594;2022-07-05T10:00:19;4.50;;;2.50;;
22470;SDS011;11402;51.374;6.594;2022-07-05T10:02:50;4.50;;;2.22;;
22470;SDS011;11402;51.374;6.594;2022-07-05T10:05:20;4.82;;;2.20;;
22470;SDS011;11402;51.374;6.594;2022-07-05T10:07:51;5.57;;;1.95;;
22470;SDS011;11402;51.374;6.594;2022-07-05T10:10:19;4.68;;;1.90;;
22470;SDS011;11402;51.374;6.594;2022-07-05T10:12:47;7.05;;;1.88;;
22470;SDS011;11402;51.374;6.594;2022-07-05T10:15:14;4.45;;;1.70;;
22470;SDS011;11402;51.374;6.594;2022-07-05T10:17:43;4.82;;;1.85;;
22470;SDS011;11402;51.374;6.594;2022-07-05T10:20:12;4.20;;;1.60;;
22470;SDS011;11402;51.374;6.594;2022-07-05T10:22:44;3.83;;;1.55;;
22470;SDS011;11402;51.374;6.594;2022-07-05T10:25:11;5.35;;;1.70;;
22470;SDS011;11402;51.374;6.594;2022-07-05T10:27:38;4.03;;;1.67;;
22470;SDS011;11402;51.374;6.594;2022-07-05T10:30:04;5.47;;;1.67;;
22470;SDS011;11402;51.374;6.594;2022-07-05T10:32:31;3.85;;;1.50;;
22470;SDS011;11402;51.374;6.594;2022-07-05T10:34:59;3.13;;;1.38;;
22470;SDS011;11402;51.374;6.594;2022-07-05T10:37:25;2.83;;;1.55;;
22470;SDS011;11402;51.374;6.594;2022-07-05T10:39:54;4.43;;;1.80;;
22470;SDS011;11402;51.374;6.594;2022-07-05T10:42:21;6.38;;;1.70;;
22470;SDS011;11402;51.374;6.594;2022-07-05T10:44:48;7.07;;;2.00;;
22470;SDS011;11402;51.374;6.594;2022-07-05T10:47:14;2.00;;;1.48;;
22470;SDS011;11402;51.374;6.594;2022-07-05T10:49:39;4.60;;;1.55;;
22470;SDS011;11402;51.374;6.594;2022-07-05T10:52:20;5.35;;;1.70;;
22470;SDS011;11402;51.374;6.594;2022-07-05T11:00:40;2.63;;;1.58;;
22470;SDS011;11402;51.374;6.594;2022-07-05T11:03:06;2.38;;;1.20;;
22470;SDS011;11402;51.374;6.594;2022-07-05T11:05:52;3.60;;;1.27;;
22470;SDS011;11402;51.374;6.594;2022-07-05T11:08:18;3.80;;;1.33;;
22470;SDS011;11402;51.374;6.594;2022-07-05T11:13:41;3.05;;;1.20;;
22470;SDS011;11402;51.374;6.594;2022-07-05T11:18:52;1.65;;;1.10;;
22470;SDS011;11402;51.374;6.594;2022-07-05T11:21:28;2.45;;;1.10;;
22470;SDS011;11402;51.374;6.594;2022-07-05T11:23:55;2.55;;;1.20;;
22470;SDS011;11402;51.374;6.594;2022-07-05T11:26:46;5.63;;;1.33;;
22470;SDS011;11402;51.374;6.594;2022-07-05T11:32:11;5.18;;;1.33;;
22470;SDS011;11402;51.374;6.594;2022-07-05T11:34:48;3.10;;;1.50;;
22470;SDS011;11402;51.374;6.594;2022-07-05T11:37:22;3.65;;;1.80;;
22470;SDS011;11402;51.374;6.594;2022-07-05T11:42:37;4.13;;;1.65;;
22470;SDS011;11402;51.374;6.594;2022-07-05T11:45:10;6.50;;;1.50;;
22470;SDS011;11402;51.374;6.594;2022-07-05T11:47:36;2.08;;;1.30;;
22470;SDS011;11402;51.374;6.594;2022-07-05T11:50:02;4.30;;;1.48;;
22470;SDS011;11402;51.374;6.594;2022-07-05T11:52:28;3.17;;;1.30;;
22470;SDS011;11402;51.374;6.594;2022-07-05T11:54:55;1.55;;;1.30;;
22470;SDS011;11402;51.374;6.594;2022-07-05T11:57:21;3.83;;;1.40;;
22470;SDS011;11402;51.374;6.594;2022-07-05T11:59:48;3.38;;;1.40;;
22470;SDS011;11402;51.374;6.594;2022-07-05T12:02:14;5.47;;;1.30;;
22470;SDS011;11402;51.374;6.594;2022-07-05T12:04:40;4.20;;;1.63;;
22470;SDS011;11402;51.374;6.594;2022-07-05T12:07:11;3.25;;;1.52;;
22470;SDS011;11402;51.374;6.594;2022-07-05T12:09:37;6.05;;;1.65;;
22470;SDS011;11402;51.374;6.594;2022-07-05T12:12:38;3.05;;;1.27;;
22470;SDS011;11402;51.374;6.594;2022-07-05T12:15:13;5.60;;;1.67;;
22470;SDS011;11402;51.374;6.594;2022-07-05T12:17:45;8.07;;;4.20;;
22470;SDS011;11402;51.374;6.594;2022-07-05T12:20:12;9.63;;;1.77;;
22470;SDS011;11402;51.374;6.594;2022-07-05T12:22:44;2.80;;;1.50;;
22470;SDS011;11402;51.374;6.594;2022-07-05T12:25:14;4.70;;;1.60;;
22470;SDS011;11402;51.374;6.594;2022-07-05T12:27:44;4.60;;;1.70;;
22470;SDS011;11402;51.374;6.594;2022-07-05T12:30:12;2.38;;;1.38;;
22470;SDS011;11402;51.374;6.594;2022-07-05T12:32:54;6.13;;;1.33;;
22470;SDS011;11402;51.374;6.594;2022-07-05T12:38:05;5.13;;;1.80;;
22470;SDS011;11402;51.374;6.594;2022-07-05T12:40:31;3.38;;;1.67;;
22470;SDS011;11402;51.374;6.594;2022-07-05T12:43:01;3.97;;;1.50;;
22470;SDS011;11402;51.374;6.594;2022-07-05T12:45:30;4.28;;;1.27;;
22470;SDS011;11402;51.374;6.594;2022-07-05T12:47:56;4.43;;;1.58;;
22470;SDS011;11402;51.374;6.594;2022-07-05T12:50:26;3.92;;;1.52;;
22470;SDS011;11402;51.374;6.594;2022-07-05T12:52:56;4.38;;;1.40;;
22470;SDS011;11402;51.374;6.594;2022-07-05T12:55:57;5.32;;;1.70;;
22470;SDS011;11402;51.374;6.594;2022-07-05T12:58:51;4.38;;;1.70;;
22470;SDS011;11402;51.374;6.594;2022-07-05T13:01:28;5.18;;;1.90;;
22470;SDS011;11402;51.374;6.594;2022-07-05T13:04:17;4.68;;;1.80;;
22470;SDS011;11402;51.374;6.594;2022-07-05T13:07:02;5.22;;;1.75;;
22470;SDS011;11402;51.374;6.594;2022-07-05T13:12:16;5.07;;;1.90;;
22470;SDS011;11402;51.374;6.594;2022-07-05T13:14:50;7.90;;;1.67;;
22470;SDS011;11402;51.374;6.594;2022-07-05T13:17:17;4.07;;;1.70;;
22470;SDS011;11402;51.374;6.594;2022-07-05T13:19:44;4.03;;;1.63;;
22470;SDS011;11402;51.374;6.594;2022-07-05T13:22:11;4.75;;;1.60;;
22470;SDS011;11402;51.374;6.594;2022-07-05T13:24:38;5.85;;;1.90;;
22470;SDS011;11402;51.374;6.594;2022-07-05T13:27:05;5.90;;;2.08;;
22470;SDS011;11402;51.374;6.594;2022-07-05T13:29:31;5.72;;;1.85;;
22470;SDS011;11402;51.374;6.594;2022-07-05T13:31:57;7.88;;;1.92;;
22470;SDS011;11402;51.374;6.594;2022-07-05T13:34:22;6.45;;;1.95;;
22470;SDS011;11402;51.374;6.594;2022-07-05T13:36:49;7.07;;;1.98;;
22470;SDS011;11402;51.374;6.594;2022-07-05T13:39:16;5.20;;;1.92;;
22470;SDS011;11402;51.374;6.594;2022-07-05T13:41:42;5.47;;;1.70;;
22470;SDS011;11402;51.374;6.594;2022-07-05T13:44:07;6.00;;;2.08;;
22470;SDS011;11402;51.374;6.594;2022-07-05T13:46:33;4.43;;;1.70;;
22470;SDS011;11402;51.374;6.594;2022-07-05T13:48:58;3.03;;;1.75;;
22470;SDS011;11402;51.374;6.594;2022-07-05T13:51:24;5.47;;;2.20;;
22470;SDS011;11402;51.374;6.594;2022-07-05T13:53:50;5.15;;;2.40;;
22470;SDS011;11402;51.374;6.594;2022-07-05T13:56:16;5.90;;;2.40;;
22470;SDS011;11402;51.374;6.594;2022-07-05T13:58:41;5.93;;;2.33;;
22470;SDS011;11402;51.374;6.594;2022-07-05T14:01:07;8.18;;;2.85;;
22470;SDS011;11402;51.374;6.594;2022-07-05T14:03:33;4.80;;;3.03;;
22470;SDS011;11402;51.374;6.594;2022-07-05T14:05:58;6.30;;;2.95;;
22470;SDS011;11402;51.374;6.594;2022-07-05T14:08:24;7.70;;;2.58;;
22470;SDS011;11402;51.374;6.594;2022-07-05T14:10:50;7.47;;;2.33;;
22470;SDS011;11402;51.374;6.594;2022-07-05T14:13:20;7.22;;;3.25;;
22470;SDS011;11402;51.374;6.594;2022-07-05T14:15:47;9.13;;;2.90;;
22470;SDS011;11402;51.374;6.594;2022-07-05T14:18:17;7.57;;;3.00;;
22470;SDS011;11402;51.374;6.594;2022-07-05T14:20:44;8.50;;;2.80;;
22470;SDS011;11402;51.374;6.594;2022-07-05T14:23:11;5.65;;;2.70;;
22470;SDS011;11402;51.374;6.594;2022-07-05T14:25:39;8.48;;;2.85;;
22470;SDS011;11402;51.374;6.594;2022-07-05T14:28:06;7.25;;;3.20;;
22470;SDS011;11402;51.374;6.594;2022-07-05T14:30:34;6.70;;;2.92;;
22470;SDS011;11402;51.374;6.594;2022-07-05T14:33:09;8.38;;;3.13;;
22470;SDS011;11402;51.374;6.594;2022-07-05T14:35:36;6.70;;;3.50;;
22470;SDS011;11402;51.374;6.594;2022-07-05T14:38:02;4.78;;;2.90;;
22470;SDS011;11402;51.374;6.594;2022-07-05T14:40:28;7.25;;;2.78;;
22470;SDS011;11402;51.374;6.594;2022-07-05T14:42:55;4.22;;;2.60;;
22470;SDS011;11402;51.374;6.594;2022-07-05T14:45:23;7.75;;;2.80;;
22470;SDS011;11402;51.374;6.594;2022-07-05T14:47:48;8.43;;;3.20;;
22470;SDS011;11402;51.374;6.594;2022-07-05T14:50:14;6.05;;;2.70;;
22470;SDS011;11402;51.374;6.594;2022-07-05T14:52:41;7.22;;;2.85;;
22470;SDS011;11402;51.374;6.594;2022-07-05T14:55:07;6.03;;;2.55;;
22470;SDS011;11402;51.374;6.594;2022-07-05T14:57:34;6.15;;;3.25;;
22470;SDS011;11402;51.374;6.594;2022-07-05T15:00:00;8.95;;;2.50;;
22470;SDS011;11402;51.374;6.594;2022-07-05T15:02:26;5.28;;;2.42;;
22470;SDS011;11402;51.374;6.594;2022-07-05T15:04:52;5.97;;;2.58;;
22470;SDS011;11402;51.374;6.594;2022-07-05T15:07:18;5.60;;;2.60;;
22470;SDS011;11402;51.374;6.594;2022-07-05T15:09:43;5.30;;;2.38;;
22470;SDS011;11402;51.374;6.594;2022-07-05T15:12:09;7.28;;;2.55;;
22470;SDS011;11402;51.374;6.594;2022-07-05T15:14:35;9.10;;;2.67;;
22470;SDS011;11402;51.374;6.594;2022-07-05T15:17:00;7.30;;;2.55;;
22470;SDS011;11402;51.374;6.594;2022-07-05T15:19:26;5.95;;;2.70;;